Time;durP1;ratioP1;P1;durP2;ratioP2;P2;SDS_P1;SDS_P2;PMS_P1;PMS_P2;Temp;Humidity;BMP_temperature;BMP_pressure;BME280_temperature;BME280_humidity;BME280_pressure;Samples;Min_cycle;Max_cycle;Signal;HPM_P1;HPM_P2
2022/11/28 00:01:22;;;;;;;2.80;1.90;;;11.20;99.90;;;;;;5011189;28;20283;-76
2022/11/28 00:03:50;;;;;;;2.87;1.73;;;11.20;99.90;;;;;;5024632;28;20184;-76
2022/11/28 00:06:17;;;;;;;3.00;2.00;;;11.20;99.90;;;;;;5027447;28;20236;-76
2022/11/28 00:08:44;;;;;;;2.30;1.90;;;11.20;99.90;;;;;;5031595;28;20210;-76
2022/11/28 00:11:16;;;;;;;2.87;1.90;;;11.20;99.90;;;;;;5024773;28;20185;-76
2022/11/28 00:13:44;;;;;;;3.17;2.00;;;11.20;99.90;;;;;;5026308;28;20573;-76
2022/11/28 00:16:22;;;;;;;4.97;2.03;;;11.20;99.90;;;;;;5032035;28;20194;-76
2022/11/28 00:18:51;;;;;;;3.13;1.93;;;11.20;99.90;;;;;;5027899;28;20204;-76
2022/11/28 00:21:19;;;;;;;2.97;2.00;;;11.10;99.90;;;;;;5019266;28;20196;-76
2022/11/28 00:23:47;;;;;;;3.27;2.00;;;11.10;99.90;;;;;;5028323;28;20637;-76
2022/11/28 00:26:20;;;;;;;7.37;3.00;;;11.10;99.90;;;;;;5047885;28;20184;-76
2022/11/28 00:28:47;;;;;;;4.47;2.13;;;11.00;99.90;;;;;;5024393;28;20194;-76
2022/11/28 00:31:26;;;;;;;4.63;2.37;;;11.00;99.90;;;;;;4999250;28;20674;-76
2022/11/28 00:33:53;;;;;;;3.93;2.90;;;11.00;99.90;;;;;;5021372;28;20192;-76
2022/11/28 00:36:22;;;;;;;5.70;2.70;;;11.00;99.90;;;;;;5025577;28;20192;-76
2022/11/28 00:38:50;;;;;;;3.40;2.27;;;11.00;99.90;;;;;;5019434;28;20886;-76
2022/11/28 00:41:22;;;;;;;6.73;2.60;;;11.00;99.90;;;;;;5028322;28;20657;-76
2022/11/28 00:43:51;;;;;;;3.80;2.53;;;10.90;99.90;;;;;;5043620;28;20863;-76
2022/11/28 00:46:19;;;;;;;7.07;2.90;;;10.90;99.90;;;;;;5025279;28;20180;-76
2022/11/28 00:48:47;;;;;;;3.80;2.50;;;10.90;99.90;;;;;;5031664;28;20561;-76
2022/11/28 00:51:24;;;;;;;7.73;2.70;;;10.90;99.90;;;;;;5020616;28;20902;-76
2022/11/28 00:53:57;;;;;;;4.47;2.70;;;10.90;99.90;;;;;;5031659;28;20556;-76
2022/11/28 00:56:32;;;;;;;5.87;3.07;;;10.90;99.90;;;;;;5010105;28;20181;-75
2022/11/28 00:58:59;;;;;;;5.70;2.67;;;10.90;99.90;;;;;;5027410;28;20671;-76
2022/11/28 01:01:42;;;;;;;3.17;2.60;;;10.90;99.90;;;;;;5017032;28;20210;-76
2022/11/28 01:04:13;;;;;;;6.03;2.50;;;10.80;99.90;;;;;;5029300;28;20614;-76
2022/11/28 01:06:46;;;;;;;6.67;2.57;;;10.80;99.90;;;;;;5027907;28;20196;-76
2022/11/28 01:09:20;;;;;;;6.07;2.40;;;10.70;99.90;;;;;;5026065;28;20208;-76
2022/11/28 01:11:50;;;;;;;4.23;2.30;;;10.80;99.90;;;;;;5031634;28;20395;-77
2022/11/28 01:14:21;;;;;;;3.93;2.10;;;10.80;99.90;;;;;;5023469;28;20255;-76
2022/11/28 01:16:48;;;;;;;3.43;2.13;;;10.80;99.90;;;;;;5026108;28;20234;-76
2022/11/28 01:19:15;;;;;;;3.20;2.20;;;10.80;99.90;;;;;;5031651;28;20183;-76
2022/11/28 01:21:41;;;;;;;4.20;1.90;;;10.80;99.90;;;;;;5024228;28;20199;-76
2022/11/28 01:24:08;;;;;;;3.23;2.43;;;10.80;99.90;;;;;;5023658;28;20703;-77
2022/11/28 01:26:36;;;;;;;2.30;1.90;;;10.80;99.90;;;;;;5042960;28;20203;-77
2022/11/28 01:29:05;;;;;;;5.80;2.13;;;10.80;99.90;;;;;;5024206;28;20288;-76
2022/11/28 01:31:31;;;;;;;3.03;1.80;;;10.70;99.90;;;;;;5024717;28;20188;-76
2022/11/28 01:33:58;;;;;;;3.77;2.00;;;10.70;99.90;;;;;;5016452;28;20216;-76
2022/11/28 01:36:26;;;;;;;2.47;1.80;;;10.70;99.90;;;;;;5023519;28;20195;-77
2022/11/28 01:38:53;;;;;;;2.30;1.73;;;10.80;99.90;;;;;;5026256;28;20254;-77
2022/11/28 01:41:27;;;;;;;2.27;2.00;;;10.80;99.90;;;;;;5040535;28;20200;-76
2022/11/28 01:44:18;;;;;;;2.20;1.80;;;10.80;99.90;;;;;;5026339;28;20639;-76
2022/11/28 01:46:44;;;;;;;2.93;2.00;;;10.90;99.90;;;;;;5014961;28;20208;-76
2022/11/28 01:49:42;;;;;;;2.80;1.93;;;10.90;99.90;;;;;;5026365;28;20207;-76
2022/11/28 01:52:16;;;;;;;3.37;1.93;;;11.10;99.90;;;;;;5032349;28;20199;-76
2022/11/28 01:54:50;;;;;;;6.73;2.10;;;11.30;99.90;;;;;;5030860;28;20784;-76
2022/11/28 01:57:22;;;;;;;3.07;2.27;;;11.30;99.90;;;;;;5033821;28;20216;-76
2022/11/28 02:00:10;;;;;;;2.10;1.90;;;11.30;99.90;;;;;;5027756;28;20673;-76
2022/11/28 02:02:48;;;;;;;5.30;2.63;;;11.20;99.90;;;;;;5021783;28;20199;-77
2022/11/28 02:05:17;;;;;;;3.70;2.30;;;11.10;99.90;;;;;;5023785;28;20194;-77
2022/11/28 02:07:46;;;;;;;3.27;2.43;;;11.00;99.90;;;;;;5029665;28;20208;-76
2022/11/28 02:10:21;;;;;;;3.83;1.97;;;10.90;99.90;;;;;;5025203;28;20215;-76
2022/11/28 02:13:24;;;;;;;2.57;2.20;;;10.80;99.90;;;;;;5029755;28;20425;-76
2022/11/28 02:16:30;;;;;;;2.80;2.20;;;10.70;99.90;;;;;;5030951;28;20184;-75
2022/11/28 02:19:36;;;;;;;2.77;2.30;;;10.70;99.90;;;;;;5071605;28;20187;-75
2022/11/28 02:22:49;;;;;;;5.73;2.30;;;10.60;99.90;;;;;;5045177;28;20211;-75
2022/11/28 02:25:22;;;;;;;2.73;2.10;;;10.60;99.90;;;;;;4988163;28;20200;-75
2022/11/28 02:28:20;;;;;;;3.07;2.40;;;10.60;99.90;;;;;;5042807;28;20194;-76
2022/11/28 02:31:15;;;;;;;3.23;2.37;;;10.50;99.90;;;;;;5044399;28;20236;-75
2022/11/28 02:33:54;;;;;;;4.83;2.77;;;10.50;99.90;;;;;;5024900;28;20223;-75
2022/11/28 02:37:05;;;;;;;4.27;2.57;;;10.50;99.90;;;;;;5035489;28;20199;-75
2022/11/28 02:40:19;;;;;;;4.83;2.40;;;10.50;99.90;;;;;;5014892;28;20856;-75
2022/11/28 02:42:52;;;;;;;3.87;2.47;;;10.50;99.90;;;;;;5037431;28;20196;-75
2022/11/28 02:45:34;;;;;;;4.63;2.20;;;10.50;99.90;;;;;;5043580;28;20188;-75
2022/11/28 02:48:36;;;;;;;3.60;2.33;;;10.50;99.90;;;;;;5039666;28;20192;-75
2022/11/28 02:51:17;;;;;;;2.70;2.33;;;10.40;99.90;;;;;;5006699;28;20538;-76
2022/11/28 02:53:47;;;;;;;3.83;2.57;;;10.40;99.90;;;;;;5058928;28;20188;-75
2022/11/28 02:56:14;;;;;;;2.40;2.20;;;10.30;99.90;;;;;;5038402;28;20373;-75
2022/11/28 02:58:41;;;;;;;3.03;2.10;;;10.30;99.90;;;;;;5028871;28;20192;-75
2022/11/28 03:01:20;;;;;;;2.70;2.40;;;10.30;99.90;;;;;;5026416;28;20197;-75
2022/11/28 03:04:20;;;;;;;3.03;2.23;;;10.30;99.90;;;;;;5034536;28;20719;-75
2022/11/28 03:07:07;;;;;;;3.20;2.40;;;10.20;99.90;;;;;;5016439;28;20285;-75
2022/11/28 03:09:43;;;;;;;3.17;2.27;;;10.30;99.90;;;;;;5026548;28;20224;-75
2022/11/28 03:12:38;;;;;;;3.37;2.53;;;10.20;99.90;;;;;;5035757;28;20196;-75
2022/11/28 03:15:10;;;;;;;2.97;2.30;;;10.20;99.90;;;;;;5045375;28;20215;-75
2022/11/28 03:17:55;;;;;;;4.13;2.37;;;10.20;99.90;;;;;;5032705;28;20196;-75
2022/11/28 03:20:48;;;;;;;4.93;2.70;;;10.20;99.90;;;;;;5024304;28;20216;-75
2022/11/28 03:23:32;;;;;;;5.87;2.43;;;10.20;99.90;;;;;;5026040;28;20193;-75
2022/11/28 03:26:14;;;;;;;5.33;2.43;;;10.20;99.90;;;;;;5031998;28;20180;-75
2022/11/28 03:29:24;;;;;;;3.10;2.00;;;10.20;99.90;;;;;;5036664;28;20831;-75
2022/11/28 03:32:09;;;;;;;7.20;2.60;;;10.10;99.90;;;;;;5030290;28;20692;-75
2022/11/28 03:34:43;;;;;;;5.13;2.40;;;10.20;99.90;;;;;;5043463;28;20191;-75
2022/11/28 03:37:31;;;;;;;3.17;2.37;;;10.20;99.90;;;;;;5044650;28;20199;-75
2022/11/28 03:40:10;;;;;;;2.90;2.40;;;10.20;99.90;;;;;;5030768;28;20420;-75
2022/11/28 03:42:44;;;;;;;3.00;2.42;;;10.20;99.90;;;;;;5040758;28;20399;-75
2022/11/28 03:45:23;;;;;;;5.03;2.30;;;10.30;99.90;;;;;;5042241;28;20787;-75
2022/11/28 03:48:04;;;;;;;3.40;2.10;;;10.30;99.90;;;;;;5038166;28;20184;-75
2022/11/28 03:51:12;;;;;;;3.33;2.20;;;10.20;99.90;;;;;;5037988;28;20208;-75
2022/11/28 03:53:59;;;;;;;4.13;2.40;;;10.30;99.90;;;;;;5037403;28;20176;-75
2022/11/28 03:56:35;;;;;;;3.67;2.90;;;10.30;99.90;;;;;;5042257;28;20183;-75
2022/11/28 03:59:29;;;;;;;3.03;2.57;;;10.40;99.90;;;;;;5024656;28;20203;-75
2022/11/28 04:02:11;;;;;;;3.90;2.60;;;10.50;99.90;;;;;;5035744;28;20203;-75
2022/11/28 04:04:57;;;;;;;2.53;2.30;;;10.50;99.90;;;;;;5037035;28;20184;-75
2022/11/28 04:07:47;;;;;;;4.37;2.40;;;10.50;99.90;;;;;;5052265;28;20680;-75
2022/11/28 04:11:05;;;;;;;5.03;2.63;;;10.60;99.90;;;;;;5042668;28;20212;-76
2022/11/28 04:13:59;;;;;;;6.10;2.90;;;10.70;99.90;;;;;;5032635;28;20284;-75
2022/11/28 04:16:52;;;;;;;4.07;2.83;;;10.90;99.90;;;;;;5020138;28;20271;-75
2022/11/28 04:19:31;;;;;;;3.17;2.63;;;11.00;99.90;;;;;;5024203;28;20289;-76
2022/11/28 04:22:23;;;;;;;3.13;2.77;;;11.00;99.90;;;;;;5023959;28;20921;-75
2022/11/28 04:24:59;;;;;;;5.03;2.73;;;11.10;99.90;;;;;;5071801;28;20193;-75
2022/11/28 04:27:35;;;;;;;5.70;2.63;;;11.10;99.90;;;;;;5046158;28;20347;-75
2022/11/28 04:30:04;;;;;;;3.53;2.20;;;11.10;99.90;;;;;;5020304;28;20200;-76
2022/11/28 04:32:36;;;;;;;4.73;2.57;;;11.00;99.90;;;;;;5039797;28;20573;-75
2022/11/28 04:35:16;;;;;;;3.60;2.90;;;11.00;99.90;;;;;;5047070;28;20738;-76
2022/11/28 04:37:47;;;;;;;5.50;2.70;;;11.00;99.90;;;;;;5036753;28;20187;-75
2022/11/28 04:40:18;;;;;;;4.20;2.93;;;10.90;99.90;;;;;;5046379;28;20276;-75
2022/11/28 04:43:01;;;;;;;5.73;2.57;;;10.90;99.90;;;;;;5034264;28;20204;-75
2022/11/28 04:45:45;;;;;;;3.63;2.53;;;11.00;99.90;;;;;;5066557;28;20268;-76
2022/11/28 04:48:12;;;;;;;4.33;2.40;;;11.10;99.90;;;;;;5042073;28;20275;-75
2022/11/28 04:51:19;;;;;;;4.97;2.83;;;11.10;99.90;;;;;;5039339;28;20220;-75
2022/11/28 04:54:04;;;;;;;5.97;2.47;;;11.30;99.90;;;;;;5050897;28;20183;-75
2022/11/28 04:56:41;;;;;;;3.93;2.90;;;11.30;99.90;;;;;;5044571;28;20248;-75
2022/11/28 04:59:09;;;;;;;3.80;2.47;;;11.30;99.90;;;;;;5028410;28;20279;-75
2022/11/28 05:01:41;;;;;;;3.30;2.57;;;11.30;99.90;;;;;;5050593;28;20191;-75
2022/11/28 05:04:08;;;;;;;5.30;2.47;;;11.20;99.90;;;;;;5057613;28;20649;-75
2022/11/28 05:06:36;;;;;;;4.27;2.70;;;11.20;99.90;;;;;;5037509;28;20197;-75
2022/11/28 05:09:03;;;;;;;3.23;2.50;;;11.20;99.90;;;;;;5040943;28;20220;-75
2022/11/28 05:11:31;;;;;;;3.90;2.60;;;11.20;99.90;;;;;;5037010;28;20199;-75
2022/11/28 05:13:58;;;;;;;4.50;2.63;;;11.10;99.90;;;;;;5037275;28;20248;-75
2022/11/28 05:16:26;;;;;;;3.77;2.60;;;11.10;99.90;;;;;;5046446;28;20195;-76
2022/11/28 05:18:52;;;;;;;4.20;2.67;;;11.10;99.90;;;;;;5044297;28;20176;-75
2022/11/28 05:21:20;;;;;;;2.90;2.47;;;11.10;99.90;;;;;;5041350;28;20203;-75
2022/11/28 05:23:50;;;;;;;4.10;2.70;;;11.10;99.90;;;;;;5036249;28;20180;-76
2022/11/28 05:26:20;;;;;;;3.43;2.53;;;11.10;99.90;;;;;;5043603;28;20187;-75
2022/11/28 05:28:49;;;;;;;4.05;2.40;;;11.10;99.90;;;;;;5045904;28;20282;-75
2022/11/28 05:31:21;;;;;;;3.27;2.67;;;11.10;99.90;;;;;;5061716;28;20185;-75
2022/11/28 05:33:47;;;;;;;4.40;2.87;;;11.10;99.90;;;;;;5044931;28;20195;-75
2022/11/28 05:36:15;;;;;;;3.80;2.93;;;11.10;99.90;;;;;;5050357;28;20186;-76
2022/11/28 05:38:43;;;;;;;5.33;2.63;;;11.20;99.90;;;;;;5040867;28;20687;-75
2022/11/28 05:41:24;;;;;;;5.93;2.63;;;11.30;99.90;;;;;;5016096;28;20187;-75
2022/11/28 05:43:51;;;;;;;3.97;2.30;;;11.60;99.90;;;;;;5037492;28;20318;-75
2022/11/28 05:46:18;;;;;;;3.27;2.30;;;11.70;99.90;;;;;;5031141;28;20209;-75
2022/11/28 05:48:46;;;;;;;5.07;2.43;;;12.10;99.90;;;;;;5041998;28;20215;-75
2022/11/28 05:51:14;;;;;;;5.23;2.30;;;12.20;99.90;;;;;;5033715;28;20185;-75
2022/11/28 05:53:40;;;;;;;2.77;2.00;;;12.20;99.90;;;;;;5033073;28;20195;-76
2022/11/28 05:56:23;;;;;;;7.47;2.30;;;12.20;99.90;;;;;;5040976;28;20187;-75
2022/11/28 05:58:51;;;;;;;4.67;2.30;;;12.20;99.90;;;;;;5042228;28;20181;-75
2022/11/28 06:01:32;;;;;;;5.03;2.23;;;12.20;99.90;;;;;;5035828;28;20196;-76
2022/11/28 06:04:00;;;;;;;3.53;2.30;;;12.30;99.90;;;;;;5036207;28;20188;-76
2022/11/28 06:06:30;;;;;;;4.13;2.10;;;12.40;99.90;;;;;;5032322;28;20191;-76
2022/11/28 06:09:01;;;;;;;6.73;2.43;;;12.50;99.90;;;;;;5043003;28;20852;-75
2022/11/28 06:11:30;;;;;;;4.57;1.87;;;12.60;99.90;;;;;;5030661;28;20283;-76
2022/11/28 06:13:57;;;;;;;6.77;2.20;;;12.70;99.90;;;;;;5019935;28;20286;-76
2022/11/28 06:16:30;;;;;;;5.90;2.20;;;13.00;99.90;;;;;;5032920;28;20193;-76
2022/11/28 06:19:01;;;;;;;4.47;1.83;;;13.30;99.90;;;;;;5028058;28;20200;-76
2022/11/28 06:21:29;;;;;;;6.67;1.93;;;13.30;99.90;;;;;;5031771;28;20180;-76
2022/11/28 06:23:59;;;;;;;8.43;1.83;;;13.40;99.90;;;;;;5044989;28;20267;-75
2022/11/28 06:26:27;;;;;;;2.90;1.70;;;13.50;99.90;;;;;;5043961;28;20191;-76
2022/11/28 06:28:55;;;;;;;5.50;2.10;;;13.70;99.90;;;;;;5046831;28;20175;-75
2022/11/28 06:31:26;;;;;;;6.20;2.00;;;13.80;99.90;;;;;;5029490;28;20204;-75
2022/11/28 06:33:53;;;;;;;4.50;2.07;;;13.90;99.90;;;;;;5030789;28;20189;-75
2022/11/28 06:36:20;;;;;;;4.90;2.50;;;13.90;99.90;;;;;;5048911;28;20314;-75
2022/11/28 06:38:47;;;;;;;5.03;2.23;;;13.90;99.90;;;;;;5028377;28;20196;-76
2022/11/28 06:41:18;;;;;;;3.20;1.93;;;13.90;99.90;;;;;;5043515;28;20207;-76
2022/11/28 06:43:44;;;;;;;4.20;1.80;;;13.90;99.90;;;;;;5036550;28;20195;-76
2022/11/28 06:46:14;;;;;;;4.83;2.30;;;14.00;99.90;;;;;;5029979;28;20254;-76
2022/11/28 06:48:40;;;;;;;3.70;1.70;;;13.90;99.90;;;;;;5035946;28;20188;-76
2022/11/28 06:51:07;;;;;;;5.03;2.30;;;13.90;99.90;;;;;;5017544;28;20216;-76
2022/11/28 06:53:36;;;;;;;4.53;1.80;;;13.80;99.90;;;;;;5036462;28;20180;-76
2022/11/28 06:56:19;;;;;;;4.97;2.00;;;14.00;99.90;;;;;;5027639;28;20191;-76
2022/11/28 06:58:53;;;;;;;4.30;2.00;;;14.00;99.90;;;;;;5026120;28;20204;-76
2022/11/28 07:01:25;;;;;;;6.00;2.10;;;14.00;99.90;;;;;;5012988;28;20668;-76
2022/11/28 07:03:55;;;;;;;3.20;1.90;;;14.10;99.90;;;;;;5035937;28;20809;-76
2022/11/28 07:06:25;;;;;;;6.00;2.10;;;14.10;99.90;;;;;;5036834;28;20207;-76
2022/11/28 07:08:52;;;;;;;5.77;2.03;;;14.10;99.90;;;;;;5042123;28;20539;-76
2022/11/28 07:11:28;;;;;;;11.47;2.40;;;14.00;99.90;;;;;;5035592;28;20189;-76
2022/11/28 07:13:58;;;;;;;3.73;2.00;;;13.90;99.90;;;;;;5056193;28;20184;-76
2022/11/28 07:16:28;;;;;;;4.60;2.07;;;14.10;99.90;;;;;;5045664;28;20184;-76
2022/11/28 07:19:00;;;;;;;4.57;2.03;;;14.10;99.90;;;;;;5028631;28;20561;-76
2022/11/28 07:21:33;;;;;;;4.60;2.20;;;14.10;99.90;;;;;;5034255;28;20230;-76
2022/11/28 07:24:10;;;;;;;8.90;2.53;;;14.10;99.90;;;;;;5029727;28;20196;-76
2022/11/28 07:26:39;;;;;;;4.30;2.27;;;14.10;99.90;;;;;;5059776;28;20200;-76
2022/11/28 07:29:13;;;;;;;6.57;2.20;;;14.00;99.90;;;;;;5044131;28;20752;-76
2022/11/28 07:31:42;;;;;;;3.47;2.03;;;14.10;99.90;;;;;;5036641;28;20187;-76
2022/11/28 07:34:15;;;;;;;6.17;2.30;;;14.30;99.90;;;;;;5043000;28;20187;-76
2022/11/28 07:36:44;;;;;;;4.67;2.30;;;14.40;99.90;;;;;;5043749;28;20360;-76
2022/11/28 07:39:16;;;;;;;4.57;1.97;;;14.50;99.90;;;;;;5035493;28;20283;-76
2022/11/28 07:41:42;;;;;;;5.27;2.10;;;14.50;99.90;;;;;;5045550;28;20219;-75
2022/11/28 07:44:10;;;;;;;4.30;2.13;;;14.40;99.90;;;;;;5042381;28;20241;-76
2022/11/28 07:46:38;;;;;;;6.73;2.10;;;14.40;99.90;;;;;;5020379;28;20200;-76
2022/11/28 07:49:24;;;;;;;3.83;2.37;;;14.40;99.90;;;;;;5057405;28;20201;-76
2022/11/28 07:51:50;;;;;;;7.67;2.30;;;14.30;99.90;;;;;;5041378;28;20192;-76
2022/11/28 07:54:18;;;;;;;3.63;2.17;;;14.30;99.90;;;;;;5037746;28;20192;-76
2022/11/28 07:56:44;;;;;;;2.93;1.77;;;14.30;99.90;;;;;;5034064;28;20196;-76
2022/11/28 07:59:12;;;;;;;6.53;2.47;;;14.30;99.90;;;;;;5046527;28;20192;-76
2022/11/28 08:01:39;;;;;;;5.27;2.17;;;14.30;99.90;;;;;;5037704;28;20345;-76
2022/11/28 08:04:09;;;;;;;7.57;2.10;;;14.30;99.90;;;;;;5028164;28;20192;-76
2022/11/28 08:06:39;;;;;;;4.80;2.13;;;14.30;99.90;;;;;;5049154;28;20198;-76
2022/11/28 08:09:07;;;;;;;4.10;2.17;;;14.40;99.90;;;;;;5050201;28;20274;-76
2022/11/28 08:11:35;;;;;;;4.43;2.00;;;14.40;99.90;;;;;;5051359;28;20189;-76
2022/11/28 08:14:01;;;;;;;5.00;2.40;;;14.40;99.90;;;;;;5032124;28;20179;-76
2022/11/28 08:16:31;;;;;;;2.53;1.83;;;14.40;99.90;;;;;;5033601;28;20197;-76
2022/11/28 08:19:01;;;;;;;4.77;2.10;;;14.40;99.90;;;;;;5013610;28;20253;-76
2022/11/28 08:21:32;;;;;;;2.77;1.93;;;14.50;99.90;;;;;;5034584;28;20203;-76
2022/11/28 08:24:01;;;;;;;10.00;2.70;;;14.40;99.90;;;;;;5027862;28;20189;-76
2022/11/28 08:26:30;;;;;;;5.33;2.30;;;14.50;99.90;;;;;;5032059;28;20204;-76
2022/11/28 08:28:57;;;;;;;3.80;2.20;;;14.50;99.90;;;;;;5048002;28;20184;-76
2022/11/28 08:31:33;;;;;;;5.50;2.40;;;14.50;99.90;;;;;;5015247;28;20246;-76
2022/11/28 08:34:04;;;;;;;6.33;2.40;;;14.50;99.90;;;;;;5018461;28;20191;-76
2022/11/28 08:36:31;;;;;;;5.27;2.57;;;14.50;99.90;;;;;;5031524;28;20196;-76
2022/11/28 08:39:00;;;;;;;4.60;2.47;;;14.60;99.90;;;;;;5052187;28;20256;-76
2022/11/28 08:41:27;;;;;;;4.73;2.10;;;14.60;99.90;;;;;;5030163;28;20188;-75
2022/11/28 08:43:53;;;;;;;3.47;2.17;;;14.60;99.90;;;;;;5033360;28;20192;-75
2022/11/28 08:46:22;;;;;;;4.43;2.07;;;14.70;99.90;;;;;;5030584;28;20185;-75
2022/11/28 08:48:51;;;;;;;6.33;2.47;;;14.70;99.90;;;;;;5028342;28;20197;-75
2022/11/28 08:51:22;;;;;;;5.17;2.10;;;14.80;99.90;;;;;;5038023;28;20193;-76
2022/11/28 08:53:50;;;;;;;3.73;2.47;;;14.80;99.90;;;;;;5035725;28;20203;-76
2022/11/28 08:56:16;;;;;;;7.83;2.33;;;14.80;99.90;;;;;;5041675;28;20185;-75
2022/11/28 08:58:43;;;;;;;6.20;1.90;;;14.90;99.90;;;;;;5039872;28;20645;-75
2022/11/28 09:01:28;;;;;;;5.27;2.20;;;14.90;99.90;;;;;;5017266;28;20215;-75
2022/11/28 09:03:56;;;;;;;6.67;2.10;;;15.00;99.90;;;;;;5043399;28;20192;-75
2022/11/28 09:06:23;;;;;;;8.20;2.50;;;15.00;99.90;;;;;;5046563;28;20196;-76
2022/11/28 09:08:52;;;;;;;6.03;2.50;;;15.10;99.90;;;;;;5046480;28;20211;-75
2022/11/28 09:11:26;;;;;;;5.03;2.30;;;15.20;99.90;;;;;;5044441;28;20223;-76
2022/11/28 09:13:52;;;;;;;6.13;2.30;;;15.20;99.90;;;;;;5044359;28;20187;-75
2022/11/28 09:16:18;;;;;;;7.23;2.33;;;15.30;99.90;;;;;;5027969;28;20184;-76
2022/11/28 09:18:45;;;;;;;14.17;2.90;;;15.30;99.90;;;;;;5041435;28;20206;-76
2022/11/28 09:21:13;;;;;;;16.37;2.80;;;15.40;99.90;;;;;;5040093;28;20566;-75
2022/11/28 09:23:43;;;;;;;6.00;2.27;;;15.40;99.90;;;;;;5031272;28;20198;-76
2022/11/28 09:26:15;;;;;;;8.87;2.83;;;15.40;99.90;;;;;;5045025;28;20192;-76
2022/11/28 09:28:41;;;;;;;9.80;2.33;;;15.50;99.90;;;;;;5037023;28;20480;-76
2022/11/28 09:31:09;;;;;;;5.95;2.53;;;15.50;99.90;;;;;;5042467;28;20419;-75
2022/11/28 09:33:38;;;;;;;4.33;2.10;;;15.50;99.90;;;;;;5047653;28;20725;-76
2022/11/28 09:36:08;;;;;;;4.33;2.23;;;15.60;99.90;;;;;;5051876;28;20337;-76
2022/11/28 09:38:36;;;;;;;4.40;2.43;;;15.60;99.90;;;;;;5042192;28;20188;-76
2022/11/28 09:41:21;;;;;;;4.83;2.37;;;15.60;99.90;;;;;;5057768;28;20184;-76
2022/11/28 09:43:49;;;;;;;6.03;2.13;;;15.60;99.90;;;;;;5046156;28;20176;-76
2022/11/28 09:46:26;;;;;;;5.87;2.10;;;15.80;99.90;;;;;;5044257;28;20268;-75
2022/11/28 09:48:59;;;;;;;8.67;2.17;;;16.10;99.90;;;;;;5075216;28;20180;-76
2022/11/28 09:51:53;;;;;;;4.30;1.83;;;16.20;99.90;;;;;;5050517;28;20230;-76
2022/11/28 09:54:41;;;;;;;7.90;2.50;;;16.20;99.90;;;;;;5060757;28;20198;-76
2022/11/28 09:57:43;;;;;;;4.47;2.07;;;16.20;99.90;;;;;;5043083;28;20457;-77
2022/11/28 10:00:41;;;;;;;8.17;2.17;;;16.30;99.90;;;;;;5040560;28;21193;-76
2022/11/28 10:03:32;;;;;;;3.63;2.03;;;16.90;99.90;;;;;;5039452;28;20211;-76
2022/11/28 10:06:34;;;;;;;5.07;2.50;;;16.70;99.90;;;;;;5043590;28;20192;-76
2022/11/28 10:09:31;;;;;;;5.10;2.33;;;16.60;99.90;;;;;;5036953;28;20214;-77
2022/11/28 10:12:33;;;;;;;8.97;2.20;;;16.60;99.90;;;;;;5040869;28;20191;-76
2022/11/28 10:15:10;;;;;;;3.90;2.20;;;16.80;99.90;;;;;;5036114;28;20195;-77
2022/11/28 10:18:22;;;;;;;4.23;2.30;;;16.80;99.90;;;;;;5042621;28;20254;-77
2022/11/28 10:20:59;;;;;;;5.33;2.23;;;16.90;99.90;;;;;;5041217;28;20206;-76
2022/11/28 10:23:45;;;;;;;4.53;2.33;;;17.10;99.90;;;;;;5037809;28;20214;-76
2022/11/28 10:26:35;;;;;;;6.17;2.30;;;17.10;99.90;;;;;;5043065;28;20181;-77
2022/11/28 10:29:13;;;;;;;6.70;2.30;;;17.20;99.90;;;;;;5027057;28;20536;-77
2022/11/28 10:31:46;;;;;;;6.77;2.23;;;17.20;99.90;;;;;;5050163;28;20206;-76
2022/11/28 10:35:05;;;;;;;9.50;2.30;;;17.20;99.90;;;;;;5078552;28;20183;-75
2022/11/28 10:37:37;;;;;;;3.07;1.90;;;17.20;99.90;;;;;;5063958;28;20657;-75
2022/11/28 10:40:23;;;;;;;3.67;1.90;;;17.10;99.90;;;;;;5065312;28;20275;-76
2022/11/28 10:43:00;;;;;;;7.23;2.30;;;17.10;99.90;;;;;;5066279;28;20261;-76
2022/11/28 10:45:51;;;;;;;7.23;2.40;;;17.30;99.90;;;;;;5075226;28;20192;-76
2022/11/28 10:48:36;;;;;;;4.43;2.47;;;17.30;99.90;;;;;;5045435;28;20191;-75
2022/11/28 10:51:27;;;;;;;5.00;2.07;;;17.30;99.90;;;;;;5046404;28;20250;-76
2022/11/28 10:54:23;;;;;;;6.50;2.00;;;17.10;99.90;;;;;;5044897;28;20188;-75
2022/11/28 10:57:35;;;;;;;8.03;2.10;;;17.10;99.90;;;;;;5045697;28;20688;-76
2022/11/28 11:00:17;;;;;;;7.50;2.37;;;17.00;99.90;;;;;;5045118;28;20196;-75
2022/11/28 11:02:56;;;;;;;7.50;2.30;;;16.90;99.90;;;;;;5040287;28;20189;-76
2022/11/28 11:05:29;;;;;;;6.43;2.47;;;16.80;99.90;;;;;;5051889;28;20191;-76
2022/11/28 11:08:19;;;;;;;5.00;2.20;;;16.90;99.90;;;;;;5048781;28;20740;-75
2022/11/28 11:10:51;;;;;;;6.73;2.87;;;17.00;99.90;;;;;;5032040;28;20752;-75
2022/11/28 11:13:31;;;;;;;5.33;2.10;;;17.10;99.90;;;;;;5042730;28;20202;-75
2022/11/28 11:16:10;;;;;;;6.07;2.70;;;17.10;99.90;;;;;;5027041;28;20251;-76
2022/11/28 11:18:44;;;;;;;6.40;2.20;;;17.10;99.90;;;;;;5081181;28;20184;-75
2022/11/28 11:21:16;;;;;;;6.27;2.53;;;17.00;99.90;;;;;;5042849;28;20199;-75
2022/11/28 11:23:45;;;;;;;8.87;2.40;;;17.00;99.90;;;;;;5060739;28;20191;-76
2022/11/28 11:26:38;;;;;;;8.10;2.80;;;17.00;99.90;;;;;;5056883;28;20226;-75
2022/11/28 11:29:05;;;;;;;11.33;2.70;;;17.00;99.90;;;;;;5074862;28;20294;-75
2022/11/28 11:31:42;;;;;;;7.37;2.93;;;16.90;99.90;;;;;;5044626;28;20215;-76
2022/11/28 11:34:22;;;;;;;6.00;2.67;;;16.90;99.90;;;;;;5054612;28;20194;-76
2022/11/28 11:36:50;;;;;;;8.40;3.20;;;16.90;99.90;;;;;;5050555;28;20203;-75
2022/11/28 11:39:24;;;;;;;7.43;2.90;;;16.90;99.90;;;;;;5038641;28;20192;-75
2022/11/28 11:42:15;;;;;;;8.37;2.90;;;16.80;99.90;;;;;;5044298;28;20184;-75
2022/11/28 11:44:41;;;;;;;8.63;3.20;;;16.80;99.90;;;;;;5045515;28;20199;-76
2022/11/28 11:47:09;;;;;;;6.97;2.93;;;16.70;99.90;;;;;;5051645;28;20373;-75
2022/11/28 11:50:00;;;;;;;13.87;3.30;;;16.70;99.90;;;;;;5044731;28;20225;-75
2022/11/28 11:52:27;;;;;;;8.60;3.10;;;16.70;99.90;;;;;;5061422;28;20192;-75
2022/11/28 11:54:56;;;;;;;8.67;3.70;;;16.80;99.90;;;;;;5028631;28;20179;-75
2022/11/28 11:57:35;;;;;;;5.67;3.07;;;16.80;99.90;;;;;;5040688;28;20220;-75
2022/11/28 12:00:19;;;;;;;6.60;3.20;;;16.70;99.90;;;;;;5024923;28;20601;-75
2022/11/28 12:03:03;;;;;;;11.90;4.13;;;16.70;99.90;;;;;;5025199;28;20253;-75
2022/11/28 12:05:54;;;;;;;5.30;3.57;;;16.60;99.90;;;;;;5058841;28;20202;-75
2022/11/28 12:08:50;;;;;;;10.73;4.07;;;16.60;99.90;;;;;;5064766;28;20207;-75
2022/11/28 12:11:22;;;;;;;9.77;3.20;;;16.50;99.90;;;;;;5045148;28;20220;-75
2022/11/28 12:13:51;;;;;;;9.30;3.53;;;16.50;99.90;;;;;;5056137;28;20188;-75
2022/11/28 12:16:40;;;;;;;9.67;3.60;;;16.50;99.90;;;;;;5061427;28;20176;-76
2022/11/28 12:20:05;;;;;;;9.93;3.80;;;16.50;99.90;;;;;;5044228;28;20182;-75
2022/11/28 12:23:25;;;;;;;9.90;3.60;;;16.40;99.90;;;;;;5044745;28;20207;-75
2022/11/28 12:26:13;;;;;;;9.07;3.80;;;16.40;99.90;;;;;;5043411;28;20200;-76
2022/11/28 12:29:19;;;;;;;9.03;3.57;;;16.40;99.90;;;;;;5026800;28;20196;-75
2022/11/28 12:31:56;;;;;;;7.27;3.40;;;16.40;99.90;;;;;;5040911;28;20184;-75
2022/11/28 12:34:29;;;;;;;7.30;3.73;;;16.40;99.90;;;;;;5046035;28;20183;-75
2022/11/28 12:37:13;;;;;;;8.97;3.47;;;16.40;99.90;;;;;;5040530;28;20239;-75
2022/11/28 12:40:16;;;;;;;7.27;3.73;;;16.40;99.90;;;;;;5025384;28;20196;-75
2022/11/28 12:43:29;;;;;;;8.37;3.40;;;16.30;99.90;;;;;;5042148;28;20279;-75
2022/11/28 12:46:38;;;;;;;8.43;3.30;;;16.30;99.90;;;;;;5024644;28;20212;-75
2022/11/28 12:49:45;;;;;;;9.60;3.50;;;16.20;99.90;;;;;;5027240;28;20202;-75
2022/11/28 12:52:52;;;;;;;7.47;3.40;;;16.20;99.90;;;;;;5045121;28;20249;-75
2022/11/28 12:55:53;;;;;;;6.27;3.40;;;16.20;99.90;;;;;;5027822;28;20187;-75
2022/11/28 12:58:32;;;;;;;9.83;4.00;;;16.10;99.90;;;;;;5034310;28;20606;-75
2022/11/28 13:01:44;;;;;;;7.90;3.77;;;16.10;99.90;;;;;;5028169;28;21475;-75
2022/11/28 13:04:41;;;;;;;7.87;3.60;;;16.10;99.90;;;;;;5034762;28;20860;-75
2022/11/28 13:07:46;;;;;;;8.37;3.53;;;16.10;99.90;;;;;;5034743;28;20668;-75
2022/11/28 13:10:37;;;;;;;7.47;3.37;;;16.20;99.90;;;;;;5054984;28;20187;-75
2022/11/28 13:13:18;;;;;;;9.57;4.00;;;16.20;99.90;;;;;;5051156;28;20267;-75
2022/11/28 13:16:19;;;;;;;7.57;3.83;;;16.20;99.90;;;;;;5045372;28;20186;-75
2022/11/28 13:19:19;;;;;;;10.97;3.70;;;16.20;99.90;;;;;;5056695;28;20221;-75
2022/11/28 13:22:07;;;;;;;9.57;4.33;;;16.20;99.90;;;;;;5040336;28;20187;-75
2022/11/28 13:25:19;;;;;;;8.73;4.23;;;16.20;99.90;;;;;;5065554;28;20191;-75
2022/11/28 13:28:01;;;;;;;9.00;4.33;;;16.20;99.90;;;;;;4991560;28;20195;-75
2022/11/28 13:30:37;;;;;;;10.77;3.70;;;16.20;99.90;;;;;;5037821;28;20204;-75
2022/11/28 13:33:51;;;;;;;12.73;4.77;;;16.20;99.90;;;;;;5056904;28;20183;-75
2022/11/28 13:36:45;;;;;;;8.17;4.87;;;16.20;99.90;;;;;;5062160;28;20194;-75
2022/11/28 13:39:33;;;;;;;10.10;4.37;;;16.10;99.90;;;;;;5026232;28;20210;-75
2022/11/28 13:42:35;;;;;;;11.43;4.90;;;16.20;99.90;;;;;;5041277;28;20549;-75